Time;durP1;ratioP1;P1;durP2;ratioP2;P2;SDS_P1;SDS_P2;PMS_P1;PMS_P2;Temp;Humidity;BMP_temperature;BMP_pressure;BME280_temperature;BME280_humidity;BME280_pressure;Samples;Min_cycle;Max_cycle;Signal;HPM_P1;HPM_P2
2023/12/11 00:00:26;;;;;;;1.00;0.90;;;;;;;-143.84;88.03;45254.72;5089720;28;20438;-60
2023/12/11 00:02:54;;;;;;;0.80;0.57;;;;;;;-143.84;87.96;45258.53;5089838;28;20440;-61
2023/12/11 00:05:21;;;;;;;0.80;0.40;;;;;;;-143.84;88.05;45231.88;5089585;28;20432;-60
2023/12/11 00:07:49;;;;;;;1.10;1.00;;;;;;;-143.84;87.80;45254.72;5089508;28;20829;-60
2023/12/11 00:10:17;;;;;;;0.80;0.77;;;;;;;-143.84;88.22;45245.19;5089263;28;20456;-60
2023/12/11 00:12:44;;;;;;;0.80;0.50;;;;;;;-143.84;87.82;45214.72;5089183;28;20438;-61
2023/12/11 00:15:13;;;;;;;0.90;0.80;;;;;;;-143.84;88.16;45264.25;5089674;28;20832;-60
2023/12/11 00:17:40;;;;;;;25.40;2.50;;;;;;;-143.84;87.56;45250.91;5089640;28;20502;-60
2023/12/11 00:20:09;;;;;;;1.40;1.10;;;;;;;-143.84;87.11;45260.44;5089486;28;20457;-61
2023/12/11 00:22:36;;;;;;;1.13;1.03;;;;;;;-143.84;87.10;45241.41;5089113;28;20479;-60
2023/12/11 00:25:06;;;;;;;1.17;1.07;;;;;;;-143.84;87.15;45260.44;5089152;28;20451;-60
2023/12/11 00:27:33;;;;;;;2.40;2.20;;;;;;;-143.84;87.65;45262.34;5089203;28;20437;-60
2023/12/11 00:30:00;;;;;;;3.80;1.80;;;;;;;-143.84;87.31;45241.41;5089318;28;20943;-60
2023/12/11 00:32:27;;;;;;;0.80;0.60;;;;;;;-143.84;87.51;45256.63;5089107;28;20439;-60
2023/12/11 00:34:55;;;;;;;0.80;0.60;;;;;;;-143.84;87.29;45250.91;5089221;28;20449;-60
2023/12/11 00:37:22;;;;;;;2.90;2.40;;;;;;;-143.84;87.22;45266.16;5089006;28;20534;-60
2023/12/11 00:39:49;;;;;;;1.13;0.80;;;;;;;-143.84;87.64;45245.19;5088916;28;20444;-60
2023/12/11 00:42:18;;;;;;;0.90;0.80;;;;;;;-143.84;87.83;45231.88;5088993;28;20433;-60
2023/12/11 00:44:45;;;;;;;6.13;1.67;;;;;;;-143.84;87.73;45254.72;5089045;28;20440;-61
2023/12/11 00:47:12;;;;;;;0.90;0.60;;;;;;;-143.84;88.02;45249.00;5089282;28;20471;-61
2023/12/11 00:49:39;;;;;;;0.90;0.70;;;;;;;-143.84;87.56;45249.00;5088811;28;20455;-60
2023/12/11 00:52:07;;;;;;;0.80;0.60;;;;;;;-143.84;87.67;45271.88;5088927;28;20831;-60
2023/12/11 00:54:34;;;;;;;0.80;0.50;;;;;;;-143.84;87.67;45241.41;5088804;28;20440;-60
2023/12/11 00:57:01;;;;;;;1.37;0.80;;;;;;;-143.84;87.28;45256.63;5088429;28;20469;-60
2023/12/11 00:59:30;;;;;;;1.27;1.17;;;;;;;-143.84;87.41;45252.81;5088733;28;20428;-60
2023/12/11 01:01:57;;;;;;;0.80;0.50;;;;;;;-143.84;87.32;45245.19;5088865;28;20454;-60
2023/12/11 01:04:24;;;;;;;2.17;1.90;;;;;;;-143.84;86.96;45258.53;5088190;28;20440;-61
2023/12/11 01:06:52;;;;;;;0.80;0.60;;;;;;;-143.84;86.96;45262.34;5089044;28;20508;-60
2023/12/11 01:09:19;;;;;;;1.60;1.33;;;;;;;-143.84;86.80;45287.09;5088652;28;20444;-60
2023/12/11 01:11:46;;;;;;;1.87;1.77;;;;;;;-143.84;86.87;45250.91;5088780;28;21084;-60
2023/12/11 01:14:13;;;;;;;3.23;0.80;;;;;;;-143.84;87.08;45285.19;5088573;28;20450;-60
2023/12/11 01:16:42;;;;;;;1.60;1.50;;;;;;;-143.84;87.22;45264.25;5088470;28;20492;-61
2023/12/11 01:19:09;;;;;;;0.90;0.70;;;;;;;-143.84;86.92;45266.16;5087306;28;20466;-60
2023/12/11 01:21:36;;;;;;;4.47;2.50;;;;;;;-143.84;86.52;45250.91;5084140;28;21656;-60
2023/12/11 01:24:04;;;;;;;1.00;0.80;;;;;;;-143.84;86.39;45229.97;5087364;28;20451;-61
2023/12/11 01:26:31;;;;;;;1.53;0.97;;;;;;;-143.84;86.65;45268.06;5089527;28;20454;-60
2023/12/11 01:28:58;;;;;;;2.90;1.17;;;;;;;-143.84;86.31;45287.09;5087463;28;20448;-59
2023/12/11 01:31:26;;;;;;;1.70;1.43;;;;;;;-143.84;86.11;45264.25;5089159;28;20451;-60
2023/12/11 01:33:54;;;;;;;0.80;0.50;;;;;;;-143.84;86.86;45247.09;5089682;28;21051;-61
2023/12/11 01:36:21;;;;;;;1.73;1.10;;;;;;;-143.84;87.05;45273.78;5088901;28;20483;-60
2023/12/11 01:38:50;;;;;;;0.80;0.60;;;;;;;-143.84;87.13;45266.16;5089037;28;20446;-60
2023/12/11 01:41:17;;;;;;;0.90;0.77;;;;;;;-143.84;87.30;45245.19;5088709;28;20463;-60
2023/12/11 01:43:52;;;;;;;0.80;0.50;;;;;;;-143.84;87.42;45250.91;5089536;28;20460;-60
2023/12/11 01:46:20;;;;;;;0.80;0.50;;;;;;;-143.84;87.58;45245.19;5089238;28;21025;-59
2023/12/11 01:48:47;;;;;;;2.70;1.80;;;;;;;-143.84;87.47;45243.31;5088764;28;20436;-60
2023/12/11 01:51:18;;;;;;;0.80;0.50;;;;;;;-143.84;87.39;45264.25;5088597;28;20440;-61
2023/12/11 01:53:46;;;;;;;1.63;1.10;;;;;;;-143.84;87.16;45269.97;5088901;28;20455;-61
2023/12/11 01:56:14;;;;;;;0.80;0.40;;;;;;;-143.84;87.32;45254.72;5088499;28;20805;-60
2023/12/11 01:58:41;;;;;;;1.60;1.20;;;;;;;-143.84;87.33;45269.97;5088761;28;20853;-61
2023/12/11 02:01:10;;;;;;;2.30;1.17;;;;;;;-143.84;87.26;45277.56;5088012;28;20444;-60
2023/12/11 02:03:38;;;;;;;0.80;0.60;;;;;;;-143.84;87.35;45235.69;5088644;28;20963;-60
2023/12/11 02:06:06;;;;;;;1.27;1.10;;;;;;;-143.84;88.37;45271.88;5088566;28;20451;-60
2023/12/11 02:08:35;;;;;;;0.80;0.60;;;;;;;-143.84;88.65;45262.34;5088596;28;20455;-60
2023/12/11 02:11:03;;;;;;;2.00;1.90;;;;;;;-143.84;88.81;45275.66;5088072;28;20968;-60
2023/12/11 02:13:30;;;;;;;1.10;1.00;;;;;;;-143.84;88.57;45269.97;5088034;28;20444;-60
2023/12/11 02:15:57;;;;;;;0.90;0.60;;;;;;;-143.84;88.50;45260.44;5088043;28;21339;-60
2023/12/11 02:18:24;;;;;;;1.07;0.90;;;;;;;-143.84;88.64;45262.34;5087310;28;20487;-60
2023/12/11 02:20:52;;;;;;;0.80;0.60;;;;;;;-143.84;88.69;45262.34;5086222;28;20510;-60
2023/12/11 02:23:28;;;;;;;0.80;0.50;;;;;;;-143.84;88.91;45252.81;5087453;28;20481;-60
2023/12/11 02:26:07;;;;;;;3.83;2.10;;;;;;;-143.84;88.60;45283.28;5087106;28;20443;-60
2023/12/11 02:28:35;;;;;;;0.80;0.50;;;;;;;-143.84;88.69;45277.56;5086391;28;20451;-60
2023/12/11 02:31:02;;;;;;;1.23;1.13;;;;;;;-143.84;88.90;45292.81;5086067;28;20447;-60
2023/12/11 02:33:29;;;;;;;1.00;0.70;;;;;;;-143.84;89.23;45250.91;5087274;28;20781;-60
2023/12/11 02:35:56;;;;;;;1.57;1.47;;;;;;;-143.84;88.80;45285.19;5086035;28;20443;-60
2023/12/11 02:38:24;;;;;;;1.17;1.07;;;;;;;-143.84;88.64;45283.28;5086939;28;21193;-59
2023/12/11 02:40:51;;;;;;;0.80;0.40;;;;;;;-143.84;88.15;45252.81;5086243;28;20439;-59
2023/12/11 02:43:20;;;;;;;2.20;1.47;;;;;;;-143.84;88.18;45271.88;5087072;28;20959;-60
2023/12/11 02:45:47;;;;;;;1.53;1.43;;;;;;;-143.84;88.13;45254.72;5086499;28;20452;-60
2023/12/11 02:48:16;;;;;;;0.80;0.50;;;;;;;-143.84;87.75;45245.19;5086852;28;20448;-60
2023/12/11 02:50:43;;;;;;;0.80;0.40;;;;;;;-143.84;87.59;45256.63;5085972;28;21373;-62
2023/12/11 02:53:10;;;;;;;0.80;0.57;;;;;;;-143.84;87.17;45243.31;5086660;28;20447;-61
2023/12/11 02:55:38;;;;;;;0.80;0.40;;;;;;;-143.84;86.81;45260.44;5086813;28;20959;-60
2023/12/11 02:58:05;;;;;;;0.90;0.70;;;;;;;-143.84;87.02;45249.00;5086887;28;20485;-60
2023/12/11 03:00:35;;;;;;;10.63;1.10;;;;;;;-143.84;86.97;45268.06;5085742;28;20965;-60
2023/12/11 03:03:02;;;;;;;0.80;0.60;;;;;;;-143.84;87.18;45292.81;5085483;28;20538;-61
2023/12/11 03:05:30;;;;;;;2.50;1.50;;;;;;;-143.84;86.84;45258.53;5086221;28;20436;-60
2023/12/11 03:07:57;;;;;;;6.70;0.97;;;;;;;-143.84;86.71;45273.78;5086312;28;20470;-59
2023/12/11 03:10:24;;;;;;;1.43;0.87;;;;;;;-143.84;86.18;45266.16;5085710;28;20557;-60
2023/12/11 03:12:51;;;;;;;0.90;0.60;;;;;;;-143.84;85.92;45268.06;5086317;28;20451;-61
2023/12/11 03:15:19;;;;;;;0.80;0.60;;;;;;;-143.84;85.61;45264.25;5086500;28;20456;-60
2023/12/11 03:17:48;;;;;;;2.17;1.55;;;;;;;-143.84;85.67;45254.72;5038153;28;1385937;-60
2023/12/11 03:20:16;;;;;;;1.77;1.13;;;;;;;-143.84;85.83;45241.41;5086423;28;20223;-60
2023/12/11 03:22:43;;;;;;;1.47;0.67;;;;;;;-143.84;85.60;45262.34;5087271;28;20690;-61
2023/12/11 03:25:11;;;;;;;0.80;0.40;;;;;;;-143.84;85.52;45237.59;5087037;28;20941;-60
2023/12/11 03:27:38;;;;;;;0.80;0.50;;;;;;;-143.84;85.34;45214.72;5087256;28;20985;-61
2023/12/11 03:30:07;;;;;;;1.57;1.00;;;;;;;-143.84;85.37;45262.34;5086555;28;20463;-61
2023/12/11 03:32:34;;;;;;;0.80;0.50;;;;;;;-143.84;85.33;45231.88;5087070;28;20452;-60
2023/12/11 03:35:03;;;;;;;1.30;1.20;;;;;;;-143.84;85.86;45241.41;5086982;28;20508;-61
2023/12/11 03:37:30;;;;;;;0.80;0.47;;;;;;;-143.84;85.07;45262.34;5085689;28;20481;-60
2023/12/11 03:39:57;;;;;;;0.80;0.50;;;;;;;-143.84;85.12;45245.19;5086500;28;20508;-60
2023/12/11 03:42:24;;;;;;;0.90;0.50;;;;;;;-143.84;84.62;45260.44;5087371;28;20448;-60
2023/12/11 03:44:54;;;;;;;3.43;0.63;;;;;;;-143.84;83.79;45243.31;5086952;28;20452;-60
2023/12/11 03:47:23;;;;;;;1.27;0.80;;;;;;;-143.84;83.63;45269.97;5086190;28;21733;-60
2023/12/11 03:49:51;;;;;;;1.83;1.27;;;;;;;-143.84;83.58;45268.06;5086242;28;20447;-60
2023/12/11 03:52:20;;;;;;;0.80;0.70;;;;;;;-143.84;83.29;45266.16;5086388;28;21094;-60
2023/12/11 03:54:47;;;;;;;3.73;1.23;;;;;;;-143.84;82.67;45249.00;5086344;28;20531;-60
2023/12/11 03:57:15;;;;;;;3.53;2.33;;;;;;;-143.84;82.57;45269.97;5085699;28;20582;-60
2023/12/11 03:59:42;;;;;;;0.80;0.70;;;;;;;-143.84;82.44;45269.97;5084901;28;20543;-60
2023/12/11 04:02:09;;;;;;;1.37;1.27;;;;;;;-143.84;82.39;45252.81;5085468;28;20448;-60
2023/12/11 04:04:36;;;;;;;1.57;1.23;;;;;;;-143.84;82.38;45258.53;5085211;28;20444;-60
2023/12/11 04:07:04;;;;;;;1.73;1.63;;;;;;;-143.84;82.27;45269.97;5085546;28;20466;-60
2023/12/11 04:09:32;;;;;;;0.80;0.73;;;;;;;-143.84;82.72;45249.00;5083819;28;20444;-60
2023/12/11 04:12:00;;;;;;;2.20;2.10;;;;;;;-143.84;82.97;45245.19;5085783;28;20452;-61
2023/12/11 04:14:27;;;;;;;1.20;1.10;;;;;;;-143.84;83.02;45269.97;5086001;28;20444;-61
2023/12/11 04:16:54;;;;;;;1.67;1.57;;;;;;;-143.84;82.70;45252.81;5085910;28;20506;-60
2023/12/11 04:19:21;;;;;;;0.80;0.60;;;;;;;-143.84;82.72;45239.50;5085553;28;20479;-59
2023/12/11 04:21:49;;;;;;;0.80;0.70;;;;;;;-143.84;82.82;45258.53;5086072;28;20448;-60
2023/12/11 04:24:16;;;;;;;1.30;0.90;;;;;;;-143.84;82.49;45256.63;5086301;28;21130;-60
2023/12/11 04:26:44;;;;;;;0.80;0.57;;;;;;;-143.84;82.70;45281.38;5085734;28;20455;-60
2023/12/11 04:29:12;;;;;;;1.33;1.23;;;;;;;-143.84;82.57;45268.06;5085516;28;20957;-60
2023/12/11 04:31:39;;;;;;;0.80;0.70;;;;;;;-143.84;82.49;45256.63;5085598;28;20454;-60
2023/12/11 04:34:06;;;;;;;0.90;0.73;;;;;;;-143.84;82.92;45264.25;5085932;28;20440;-60
2023/12/11 04:36:34;;;;;;;1.27;1.00;;;;;;;-143.84;82.78;45254.72;5081036;28;20467;-60
2023/12/11 04:39:01;;;;;;;1.73;1.60;;;;;;;-143.84;82.73;45249.00;5085554;28;20467;-60
2023/12/11 04:41:29;;;;;;;0.87;0.70;;;;;;;-143.84;82.60;45247.09;5085974;28;20928;-60
2023/12/11 04:43:58;;;;;;;1.83;1.10;;;;;;;-143.84;82.50;45258.53;5085738;28;20450;-59
2023/12/11 04:46:25;;;;;;;1.43;1.03;;;;;;;-143.84;83.00;45275.66;5085388;28;20471;-60
2023/12/11 04:48:52;;;;;;;2.30;1.53;;;;;;;-143.84;83.26;45247.09;5085310;28;20440;-59
2023/12/11 04:51:19;;;;;;;2.00;1.37;;;;;;;-143.84;83.26;45262.34;5085687;28;20982;-61
2023/12/11 04:53:46;;;;;;;1.33;1.17;;;;;;;-143.84;83.29;45279.47;5085757;28;20448;-60
2023/12/11 04:56:14;;;;;;;0.90;0.80;;;;;;;-143.84;83.35;45275.66;5085668;28;20949;-60
2023/12/11 04:58:42;;;;;;;0.93;0.83;;;;;;;-143.84;83.37;45260.44;5085367;28;20483;-60
2023/12/11 05:01:11;;;;;;;2.00;1.70;;;;;;;-143.84;83.16;45250.91;5084352;28;20547;-60
2023/12/11 05:03:38;;;;;;;0.83;0.57;;;;;;;-143.84;83.40;45247.09;5087153;28;20448;-60
2023/12/11 05:06:06;;;;;;;0.80;0.60;;;;;;;-143.84;83.61;45254.72;5087457;28;20441;-61
2023/12/11 05:08:33;;;;;;;0.80;0.50;;;;;;;-143.84;83.32;45262.34;5084328;28;20988;-61
2023/12/11 05:11:00;;;;;;;1.63;1.53;;;;;;;-143.84;83.24;45283.28;5084745;28;20443;-60
2023/12/11 05:13:28;;;;;;;4.10;1.43;;;;;;;-143.84;83.23;45254.72;5087760;28;20447;-61
2023/12/11 05:15:55;;;;;;;1.53;1.43;;;;;;;-143.84;83.03;45256.63;5086791;28;20452;-61
2023/12/11 05:18:24;;;;;;;0.80;0.50;;;;;;;-143.84;83.01;45237.59;5086947;28;20512;-60
2023/12/11 05:20:51;;;;;;;1.30;0.90;;;;;;;-143.84;82.85;45250.91;5084770;28;20448;-62
2023/12/11 05:23:18;;;;;;;1.13;0.70;;;;;;;-143.84;82.51;45241.41;5085270;28;20448;-62
2023/12/11 05:25:45;;;;;;;2.43;2.23;;;;;;;-143.84;82.48;45258.53;5085075;28;20868;-63
2023/12/11 05:28:12;;;;;;;1.33;0.97;;;;;;;-143.84;82.61;45283.28;5085162;28;20453;-63
2023/12/11 05:30:40;;;;;;;3.63;1.03;;;;;;;-143.84;82.54;45254.72;5084395;28;20441;-62
2023/12/11 05:33:07;;;;;;;3.10;1.07;;;;;;;-143.84;82.72;45269.97;5084586;28;20432;-63
2023/12/11 05:35:35;;;;;;;0.90;0.70;;;;;;;-143.84;82.90;45252.81;5082218;28;20954;-62
2023/12/11 05:38:03;;;;;;;1.93;0.93;;;;;;;-143.84;83.12;45254.72;5085301;28;20491;-62
2023/12/11 05:40:30;;;;;;;0.80;0.60;;;;;;;-143.84;83.04;45233.78;5083155;28;20471;-62
2023/12/11 05:42:57;;;;;;;0.80;0.40;;;;;;;-143.84;83.26;45264.25;5086100;28;20448;-62
2023/12/11 05:45:25;;;;;;;1.67;1.57;;;;;;;-143.84;83.15;45249.00;5088334;28;20444;-63
2023/12/11 05:47:53;;;;;;;1.20;0.87;;;;;;;-143.84;82.69;45260.44;5088344;28;20448;-63
2023/12/11 05:50:20;;;;;;;1.70;1.60;;;;;;;-143.84;82.80;45254.72;5088133;28;20448;-62
2023/12/11 05:52:48;;;;;;;1.53;1.23;;;;;;;-143.84;82.49;45260.44;5088133;28;20450;-62
2023/12/11 05:55:16;;;;;;;0.80;0.50;;;;;;;-143.84;82.59;45258.53;5088388;28;20447;-62
2023/12/11 05:57:43;;;;;;;3.77;2.20;;;;;;;-143.84;82.38;45247.09;5088199;28;20484;-63
2023/12/11 06:00:12;;;;;;;2.10;1.33;;;;;;;-143.84;82.06;45262.34;5088180;28;20435;-62
2023/12/11 06:02:40;;;;;;;2.90;1.73;;;;;;;-143.84;82.04;45268.06;5088552;28;20497;-62
2023/12/11 06:05:09;;;;;;;6.83;4.33;;;;;;;-143.84;81.87;45235.69;5088293;28;20429;-63
2023/12/11 06:07:36;;;;;;;2.00;1.80;;;;;;;-143.84;81.67;45266.16;5088132;28;20437;-62
2023/12/11 06:10:06;;;;;;;1.33;1.13;;;;;;;-143.84;81.14;45241.41;5089969;28;20444;-63
2023/12/11 06:12:34;;;;;;;6.73;1.70;;;;;;;-143.84;81.70;45264.25;5091847;28;20551;-62
2023/12/11 06:15:01;;;;;;;1.43;1.30;;;;;;;-143.84;81.98;45249.00;5091970;28;20489;-62
2023/12/11 06:17:28;;;;;;;17.33;1.60;;;;;;;-143.84;82.17;45247.09;5091765;28;20483;-62
2023/12/11 06:19:55;;;;;;;1.37;1.27;;;;;;;-143.84;81.93;45264.25;5091791;28;20468;-62
2023/12/11 06:22:22;;;;;;;1.27;0.90;;;;;;;-143.84;81.98;45250.91;5091806;28;20455;-63
2023/12/11 06:24:50;;;;;;;1.47;1.17;;;;;;;-143.84;81.77;45245.19;5091431;28;20455;-62
2023/12/11 06:27:18;;;;;;;1.37;1.27;;;;;;;-143.84;81.86;45264.25;5091357;28;20462;-63
2023/12/11 06:29:45;;;;;;;1.33;1.23;;;;;;;-143.84;81.82;45241.41;5091774;28;20848;-62
2023/12/11 06:32:13;;;;;;;1.00;0.80;;;;;;;-143.84;81.95;45266.16;5091363;28;20436;-63
2023/12/11 06:34:40;;;;;;;1.13;1.03;;;;;;;-143.84;82.26;45241.41;5091647;28;20918;-62
2023/12/11 06:37:07;;;;;;;0.80;0.60;;;;;;;-143.84;83.10;45260.44;5091257;28;20444;-63
2023/12/11 06:39:34;;;;;;;0.80;0.73;;;;;;;-143.84;82.88;45252.81;5091334;28;20480;-63
2023/12/11 06:42:02;;;;;;;0.80;0.40;;;;;;;-143.84;82.98;45252.81;5090935;28;20451;-63
2023/12/11 06:44:30;;;;;;;1.00;0.90;;;;;;;-143.84;82.70;45239.50;5091107;28;20962;-62
2023/12/11 06:46:58;;;;;;;0.83;0.60;;;;;;;-143.84;82.95;45268.06;5090764;28;20448;-62
2023/12/11 06:49:25;;;;;;;1.50;0.93;;;;;;;-143.84;82.25;45243.31;5091085;28;20478;-63
2023/12/11 06:51:52;;;;;;;0.80;0.60;;;;;;;-143.84;81.81;45249.00;5091218;28;20440;-63
2023/12/11 06:54:20;;;;;;;3.90;1.13;;;;;;;-143.84;80.73;45252.81;5090873;28;20542;-62
2023/12/11 06:56:47;;;;;;;3.70;1.27;;;;;;;-143.84;80.48;45249.00;5091014;28;20810;-63
2023/12/11 06:59:14;;;;;;;0.90;0.80;;;;;;;-143.84;80.09;45231.88;5090882;28;20487;-62
2023/12/11 07:01:43;;;;;;;1.20;0.60;;;;;;;-143.84;79.21;45235.69;5090834;28;20453;-63
2023/12/11 07:04:10;;;;;;;1.23;0.93;;;;;;;-143.84;76.29;45264.25;5090663;28;20458;-62
2023/12/11 07:06:38;;;;;;;0.80;0.50;;;;;;;-143.84;75.81;45235.69;5090764;28;20447;-62
2023/12/11 07:09:05;;;;;;;1.10;0.87;;;;;;;-143.84;75.41;45235.69;5091090;28;20706;-62
2023/12/11 07:11:32;;;;;;;0.97;0.87;;;;;;;-143.84;73.41;45220.44;5090733;28;20443;-62
2023/12/11 07:13:59;;;;;;;0.80;0.50;;;;;;;-143.84;72.82;45231.88;5090533;28;20443;-62
2023/12/11 07:16:27;;;;;;;1.43;0.90;;;;;;;-143.84;71.08;45210.94;5090427;28;20483;-63
2023/12/11 07:18:55;;;;;;;0.80;0.60;;;;;;;-143.84;69.32;45222.34;5090394;28;20483;-62
2023/12/11 07:21:23;;;;;;;1.60;1.50;;;;;;;-143.84;66.90;45245.19;5089126;28;20448;-62
2023/12/11 07:23:50;;;;;;;1.77;1.43;;;;;;;-143.84;65.61;45249.00;5090384;28;20436;-63
2023/12/11 07:26:17;;;;;;;1.20;0.80;;;;;;;-143.84;65.96;45220.44;5090151;28;20454;-63
2023/12/11 07:28:44;;;;;;;3.17;0.80;;;;;;;-143.84;66.36;45245.19;5090473;28;20443;-62
2023/12/11 07:31:12;;;;;;;1.33;1.13;;;;;;;-143.84;66.22;45239.50;5090099;28;20439;-62
2023/12/11 07:33:39;;;;;;;1.70;1.60;;;;;;;-143.84;66.42;45228.06;5090296;28;20450;-63
2023/12/11 07:36:10;;;;;;;1.73;1.60;;;;;;;-143.84;66.47;45222.34;5090114;28;21008;-63
2023/12/11 07:38:37;;;;;;;4.13;2.50;;;;;;;-143.84;67.72;45243.31;5089874;28;20519;-62
2023/12/11 07:41:05;;;;;;;1.30;1.20;;;;;;;-143.84;66.73;45243.31;5089921;28;20871;-63
2023/12/11 07:43:32;;;;;;;2.70;2.10;;;;;;;-143.84;66.62;45220.44;5089947;28;20453;-62
2023/12/11 07:45:59;;;;;;;2.77;2.50;;;;;;;-143.84;66.99;45237.59;5089961;28;20436;-63
2023/12/11 07:48:26;;;;;;;1.90;1.80;;;;;;;-143.84;66.47;45209.03;5089948;28;20459;-63
2023/12/11 07:50:53;;;;;;;2.13;1.03;;;;;;;-143.84;66.68;45226.16;5089665;28;20455;-63
2023/12/11 07:53:22;;;;;;;0.90;0.80;;;;;;;-143.84;66.73;45247.09;5089502;28;20494;-62
2023/12/11 07:55:49;;;;;;;0.80;0.60;;;;;;;-143.84;67.41;45237.59;5089771;28;20504;-62
2023/12/11 07:58:17;;;;;;;1.40;1.30;;;;;;;-143.84;67.95;45241.41;5089751;28;20448;-62
2023/12/11 08:00:44;;;;;;;0.80;0.50;;;;;;;-143.84;68.01;45254.72;5089718;28;20939;-62
2023/12/11 08:03:11;;;;;;;1.53;1.03;;;;;;;-143.84;67.11;45226.16;5089638;28;20450;-62
2023/12/11 08:05:38;;;;;;;1.37;0.90;;;;;;;-143.84;66.81;45207.13;5089949;28;20444;-62
2023/12/11 08:08:06;;;;;;;1.50;1.40;;;;;;;-143.84;65.88;45207.13;5089497;28;20439;-62
2023/12/11 08:10:35;;;;;;;1.07;0.97;;;;;;;-143.84;65.08;45209.03;5089262;28;20925;-62
2023/12/11 08:13:02;;;;;;;0.80;0.50;;;;;;;-143.84;62.82;45228.06;5089613;28;20462;-62
2023/12/11 08:15:29;;;;;;;0.80;0.57;;;;;;;-143.84;62.60;45214.72;5089493;28;20458;-62
2023/12/11 08:17:56;;;;;;;0.93;0.83;;;;;;;-143.84;61.05;45197.59;5089147;28;20488;-62
2023/12/11 08:20:23;;;;;;;0.80;0.40;;;;;;;-143.84;60.18;45220.44;5088836;28;21020;-62
2023/12/11 08:22:51;;;;;;;0.80;0.60;;;;;;;-143.84;59.17;45222.34;5089205;28;20448;-63
2023/12/11 08:25:18;;;;;;;0.97;0.73;;;;;;;-143.84;57.84;45205.22;5088899;28;20827;-62
2023/12/11 08:27:47;;;;;;;1.37;1.10;;;;;;;-143.84;57.10;45203.31;5089101;28;20448;-62
2023/12/11 08:30:14;;;;;;;2.63;1.07;;;;;;;-143.84;56.88;45193.78;5089082;28;20458;-63
2023/12/11 08:32:41;;;;;;;2.07;1.20;;;;;;;-143.84;55.19;45191.88;5088634;28;20442;-62
2023/12/11 08:35:09;;;;;;;9.33;1.33;;;;;;;-143.84;54.54;45222.34;5088199;28;20859;-62
2023/12/11 08:37:37;;;;;;;2.33;1.10;;;;;;;-143.84;52.42;45209.03;5088506;28;20447;-62
2023/12/11 08:40:05;;;;;;;1.40;0.70;;;;;;;-143.84;52.17;45199.50;5088960;28;20611;-62
2023/12/11 08:42:33;;;;;;;1.13;0.90;;;;;;;-143.84;52.07;45203.31;5088718;28;20472;-62
2023/12/11 08:45:02;;;;;;;2.03;1.27;;;;;;;-143.84;52.07;45184.25;5088314;28;20461;-62
2023/12/11 08:47:30;;;;;;;4.37;1.63;;;;;;;-143.84;51.14;45189.97;5088986;28;20852;-63
2023/12/11 08:49:57;;;;;;;2.33;1.20;;;;;;;-143.84;50.18;45176.66;5088900;28;20500;-62
2023/12/11 08:52:24;;;;;;;0.90;0.70;;;;;;;-143.84;50.26;45176.66;5088452;28;20444;-62
2023/12/11 08:54:52;;;;;;;1.33;1.23;;;;;;;-143.84;49.40;45193.78;5088633;28;20535;-62
2023/12/11 08:57:19;;;;;;;6.37;2.73;;;;;;;-143.84;48.74;45214.72;5088483;28;20937;-62
2023/12/11 08:59:47;;;;;;;2.30;1.63;;;;;;;-143.84;49.49;45199.50;5088700;28;20479;-62
2023/12/11 09:02:15;;;;;;;3.10;2.53;;;;;;;-143.84;51.10;45191.88;5088690;28;20854;-62
2023/12/11 09:04:43;;;;;;;2.13;1.70;;;;;;;-143.84;50.99;45193.78;5088644;28;20436;-62
2023/12/11 09:07:10;;;;;;;5.60;3.07;;;;;;;-143.84;50.83;45209.03;5088254;28;20440;-62
2023/12/11 09:09:38;;;;;;;1.60;0.83;;;;;;;-143.84;51.29;45207.13;5088483;28;20533;-62
2023/12/11 09:12:06;;;;;;;6.27;3.73;;;;;;;-143.84;51.59;45189.97;5088788;28;20501;-62
2023/12/11 09:14:34;;;;;;;1.20;1.10;;;;;;;-143.84;51.35;45220.44;5088753;28;21284;-62
2023/12/11 09:17:01;;;;;;;3.10;2.90;;;;;;;-143.84;52.17;45214.72;5088541;28;20491;-62
2023/12/11 09:19:30;;;;;;;1.47;1.37;;;;;;;-143.84;51.62;45197.59;5088371;28;20490;-62
2023/12/11 09:21:58;;;;;;;1.97;1.33;;;;;;;-143.84;53.67;45212.84;5088265;28;20471;-62
2023/12/11 09:24:25;;;;;;;2.70;1.33;;;;;;;-143.84;53.11;45174.75;5088649;28;20447;-62
2023/12/11 09:26:52;;;;;;;1.93;1.73;;;;;;;-143.84;51.66;45189.97;5088327;28;20432;-62
2023/12/11 09:29:19;;;;;;;2.50;2.30;;;;;;;-143.84;50.16;45205.22;5088436;28;20800;-62
2023/12/11 09:31:47;;;;;;;3.10;2.60;;;;;;;-143.84;48.41;45180.47;5088247;28;20440;-61
2023/12/11 09:34:14;;;;;;;4.80;2.27;;;;;;;-143.84;48.23;45167.13;5088399;28;20913;-62
2023/12/11 09:36:43;;;;;;;4.00;1.67;;;;;;;-143.84;48.37;45178.56;5088256;28;20475;-62
2023/12/11 09:39:10;;;;;;;0.97;0.87;;;;;;;-143.84;48.31;45174.75;5088250;28;20480;-62
2023/12/11 09:41:37;;;;;;;1.83;1.73;;;;;;;-143.84;48.25;45170.94;5088402;28;20432;-62
2023/12/11 09:44:05;;;;;;;2.60;1.37;;;;;;;-143.84;47.02;45172.84;5088456;28;20435;-62
2023/12/11 09:46:41;;;;;;;3.60;3.27;;;;;;;-143.84;46.44;45172.84;5092448;28;20444;-62
2023/12/11 09:49:09;;;;;;;2.37;1.77;;;;;;;-143.84;45.41;45178.56;5092180;28;20439;-62
2023/12/11 09:51:37;;;;;;;3.03;1.73;;;;;;;-143.84;45.50;45165.22;5091719;28;20451;-62
2023/12/11 09:54:06;;;;;;;1.63;1.43;;;;;;;-143.84;46.26;45176.66;5092228;28;20443;-62
2023/12/11 09:56:33;;;;;;;2.00;1.80;;;;;;;-143.84;46.06;45167.13;5092470;28;20616;-62
2023/12/11 09:59:02;;;;;;;0.87;0.63;;;;;;;-143.84;45.20;45174.75;5092341;28;20475;-62
2023/12/11 10:01:30;;;;;;;0.97;0.87;;;;;;;-143.84;45.53;45167.13;5092023;28;20444;-62
2023/12/11 10:03:58;;;;;;;1.27;1.17;;;;;;;-143.84;44.88;45142.38;5091858;28;20436;-62
2023/12/11 10:06:25;;;;;;;1.20;0.70;;;;;;;-143.84;43.62;45146.19;5091662;28;20435;-62
2023/12/11 10:08:53;;;;;;;1.40;1.17;;;;;;;-143.84;42.83;45180.47;5091834;28;20447;-62
2023/12/11 10:11:24;;;;;;;1.30;1.20;;;;;;;-143.84;43.73;45178.56;5091862;28;20507;-62
2023/12/11 10:13:52;;;;;;;3.00;2.37;;;;;;;-143.84;43.64;45189.97;5091701;28;20800;-62
2023/12/11 10:16:29;;;;;;;2.90;1.57;;;;;;;-143.84;43.74;45165.22;5091538;28;20490;-63
2023/12/11 10:18:56;;;;;;;2.40;1.63;;;;;;;-143.84;44.10;45155.69;5091620;28;20450;-63
2023/12/11 10:21:25;;;;;;;1.57;1.47;;;;;;;-143.84;43.96;45161.41;5091321;28;20448;-62
2023/12/11 10:24:03;;;;;;;1.37;1.20;;;;;;;-143.84;43.33;45170.94;5091726;28;20493;-63
2023/12/11 10:26:33;;;;;;;1.63;1.53;;;;;;;-143.84;43.46;45155.69;5091208;28;20497;-62
2023/12/11 10:29:18;;;;;;;2.77;2.57;;;;;;;-143.84;42.71;45174.75;5091459;28;20440;-62
2023/12/11 10:31:46;;;;;;;1.67;1.37;;;;;;;-143.84;44.53;45174.75;5091489;28;21284;-62
2023/12/11 10:34:13;;;;;;;1.30;0.97;;;;;;;-143.84;44.59;45165.22;5091332;28;20436;-62
2023/12/11 10:36:49;;;;;;;1.30;1.20;;;;;;;-143.84;44.30;45184.25;5091236;28;20435;-62
2023/12/11 10:39:51;;;;;;;6.00;2.77;;;;;;;-143.84;45.05;45153.81;5091264;28;20541;-61
2023/12/11 10:42:20;;;;;;;9.93;4.13;;;;;;;-143.84;44.64;45159.50;5090092;28;20999;-62
2023/12/11 10:45:07;;;;;;;2.50;2.30;;;;;;;-143.84;45.63;45188.06;5091246;28;20447;-62
2023/12/11 10:47:35;;;;;;;2.70;1.90;;;;;;;-143.84;45.27;45176.66;5090930;28;20988;-62
2023/12/11 10:50:03;;;;;;;9.10;4.70;;;;;;;-143.84;45.15;45163.31;5090390;28;20460;-62
2023/12/11 10:52:30;;;;;;;3.33;2.50;;;;;;;-143.84;46.29;45184.25;5089433;28;20459;-62
2023/12/11 10:54:57;;;;;;;5.67;3.40;;;;;;;-143.84;46.23;45178.56;5090666;28;20451;-63
2023/12/11 10:57:26;;;;;;;3.53;2.60;;;;;;;-143.84;47.60;45167.13;5090997;28;20998;-62
2023/12/11 10:59:55;;;;;;;4.60;3.60;;;;;;;-143.84;48.43;45186.16;5090963;28;20486;-62
2023/12/11 11:02:25;;;;;;;5.70;3.00;;;;;;;-143.84;48.29;45184.25;5091045;28;20428;-62
2023/12/11 11:04:52;;;;;;;4.47;4.17;;;;;;;-143.84;47.90;45167.13;5090812;28;20523;-62
2023/12/11 11:07:28;;;;;;;3.73;2.93;;;;;;;-143.84;47.80;45189.97;5090494;28;20447;-62
2023/12/11 11:10:03;;;;;;;3.77;2.80;;;;;;;-143.84;47.92;45197.59;5090552;28;20443;-62
2023/12/11 11:12:42;;;;;;;2.43;1.90;;;;;;;-143.84;47.26;45189.97;5090735;28;20475;-62
2023/12/11 11:15:10;;;;;;;1.93;1.40;;;;;;;-143.84;48.33;45169.03;5090429;28;20452;-62
2023/12/11 11:18:02;;;;;;;3.23;3.03;;;;;;;-143.84;48.60;45170.94;5090198;28;20488;-61
2023/12/11 11:20:30;;;;;;;3.93;3.00;;;;;;;-143.84;49.69;45159.50;5090398;28;20566;-62